createdAt,value
2023-04-09T00:01:07.348Z,10.05
2023-04-09T00:01:29.853Z,11.27
2023-04-09T00:03:56.361Z,10.45
2023-04-09T00:06:07.248Z,10.45
2023-04-09T00:06:22.808Z,9.82
2023-04-09T00:08:49.369Z,11.52
2023-04-09T00:11:07.212Z,11.52
2023-04-09T00:11:15.942Z,11.73
2023-04-09T00:13:42.341Z,9.23
2023-04-09T00:16:07.270Z,9.23
2023-04-09T00:16:08.912Z,12.20
2023-04-09T00:18:35.647Z,10.00
2023-04-09T00:21:02.185Z,10.73
2023-04-09T00:21:07.253Z,10.73
2023-04-09T00:23:28.633Z,9.43
2023-04-09T00:25:55.157Z,12.75
2023-04-09T00:26:07.250Z,12.75
2023-04-09T00:28:21.645Z,10.73
2023-04-09T00:30:48.039Z,10.77
2023-04-09T00:31:07.238Z,10.77
2023-04-09T00:33:14.459Z,11.13
2023-04-09T00:35:41.136Z,9.85
2023-04-09T00:36:07.266Z,9.85
2023-04-09T00:38:07.558Z,10.20
2023-04-09T00:40:33.994Z,9.48
2023-04-09T00:41:07.227Z,9.48
2023-04-09T00:43:01.101Z,10.32
2023-04-09T00:45:27.619Z,9.73
2023-04-09T00:46:07.327Z,9.73
2023-04-09T00:47:54.402Z,10.65
2023-04-09T00:50:21.504Z,11.02
2023-04-09T00:51:07.256Z,11.02
2023-04-09T00:52:47.998Z,10.23
2023-04-09T00:55:14.964Z,10.35
2023-04-09T00:56:07.335Z,10.35
2023-04-09T00:57:41.354Z,11.00
2023-04-09T01:00:08.481Z,10.23
2023-04-09T01:01:07.244Z,10.23
2023-04-09T01:02:35.189Z,10.80
2023-04-09T01:05:02.024Z,11.52
2023-04-09T01:06:07.261Z,11.52
2023-04-09T01:07:36.916Z,11.68
2023-04-09T01:10:15.432Z,8.45
2023-04-09T01:11:07.240Z,8.45
2023-04-09T01:13:00.461Z,11.88
2023-04-09T01:15:31.249Z,10.00
2023-04-09T01:16:07.284Z,10.00
2023-04-09T01:18:23.528Z,9.32
2023-04-09T01:21:02.789Z,8.55
2023-04-09T01:21:07.242Z,8.55
2023-04-09T01:23:32.435Z,8.95
2023-04-09T01:26:17.032Z,9.85
2023-04-09T01:26:17.188Z,9.85
2023-04-09T01:28:46.471Z,7.80
2023-04-09T01:31:07.402Z,7.80
2023-04-09T01:31:15.014Z,10.95
2023-04-09T01:33:42.282Z,9.45
2023-04-09T01:36:07.325Z,9.45
2023-04-09T01:36:09.573Z,9.68
2023-04-09T01:38:39.027Z,10.93
2023-04-09T01:41:07.590Z,9.80
2023-04-09T01:41:08.263Z,9.80
2023-04-09T01:43:34.818Z,9.35
2023-04-09T01:46:03.395Z,9.38
2023-04-09T01:46:07.287Z,9.38
2023-04-09T01:48:31.469Z,9.70
2023-04-09T01:50:59.083Z,9.70
2023-04-09T01:51:07.262Z,9.70
2023-04-09T01:53:28.281Z,9.30
2023-04-09T01:55:58.142Z,10.20
2023-04-09T01:56:07.266Z,10.20
2023-04-09T01:58:25.609Z,7.20
2023-04-09T02:01:03.496Z,7.50
2023-04-09T02:01:07.290Z,7.50
2023-04-09T02:03:37.886Z,9.43
2023-04-09T02:06:17.180Z,9.25
2023-04-09T02:06:17.352Z,9.25
2023-04-09T02:08:47.082Z,8.05
2023-04-09T02:11:07.223Z,8.05
2023-04-09T02:11:15.843Z,10.50
2023-04-09T02:13:43.345Z,10.10
2023-04-09T02:16:07.257Z,10.10
2023-04-09T02:16:12.970Z,10.32
2023-04-09T02:18:39.409Z,9.38
2023-04-09T02:21:06.481Z,9.02
2023-04-09T02:21:07.245Z,9.02
2023-04-09T02:23:33.503Z,8.70
2023-04-09T02:25:59.840Z,10.23
2023-04-09T02:26:07.243Z,10.23
2023-04-09T02:28:26.202Z,8.98
2023-04-09T02:30:52.749Z,9.10
2023-04-09T02:31:07.331Z,9.10
2023-04-09T02:33:19.182Z,8.60
2023-04-09T02:35:45.787Z,9.63
2023-04-09T02:36:07.331Z,9.63
2023-04-09T02:38:16.021Z,8.35
2023-04-09T02:40:42.754Z,10.40
2023-04-09T02:41:07.256Z,10.40
2023-04-09T02:43:09.808Z,8.40
2023-04-09T02:45:36.372Z,8.93
2023-04-09T02:46:07.352Z,8.93
2023-04-09T02:48:02.750Z,8.10
2023-04-09T02:50:29.505Z,9.07
2023-04-09T02:51:07.243Z,9.07
2023-04-09T02:52:55.973Z,9.02
2023-04-09T02:55:22.482Z,9.48
2023-04-09T02:56:07.295Z,9.48
2023-04-09T02:57:48.892Z,8.18
2023-04-09T03:00:15.337Z,9.45
2023-04-09T03:01:07.279Z,9.45
2023-04-09T03:02:42.019Z,9.23
2023-04-09T03:05:08.895Z,8.68
2023-04-09T03:06:07.283Z,8.68
2023-04-09T03:07:35.303Z,7.50
2023-04-09T03:10:01.737Z,10.27
2023-04-09T03:11:07.280Z,10.27
2023-04-09T03:12:28.190Z,9.93
2023-04-09T03:14:54.618Z,9.18
2023-04-09T03:16:07.393Z,9.18
2023-04-09T03:17:21.144Z,7.97
2023-04-09T03:19:47.475Z,8.25
2023-04-09T03:21:07.287Z,8.25
2023-04-09T03:22:13.934Z,8.88
2023-04-09T03:24:40.482Z,8.98
2023-04-09T03:26:07.293Z,8.98
2023-04-09T03:27:06.811Z,10.75
2023-04-09T03:29:33.164Z,8.10
2023-04-09T03:31:07.336Z,8.10
2023-04-09T03:31:59.524Z,6.95
2023-04-09T03:34:25.901Z,8.60
2023-04-09T03:36:07.344Z,8.60
2023-04-09T03:36:52.251Z,7.45
2023-04-09T03:39:18.602Z,7.75
2023-04-09T03:41:07.288Z,7.75
2023-04-09T03:41:45.013Z,8.18
2023-04-09T03:44:11.370Z,8.38
2023-04-09T03:46:07.383Z,8.38
2023-04-09T03:46:37.771Z,8.23
2023-04-09T03:49:04.298Z,7.25
2023-04-09T03:51:07.297Z,7.25
2023-04-09T03:51:31.781Z,7.65
2023-04-09T03:53:58.113Z,6.13
2023-04-09T03:56:07.311Z,6.13
2023-04-09T03:56:24.439Z,7.45
2023-04-09T03:58:51.023Z,8.35
2023-04-09T04:01:07.330Z,8.35
2023-04-09T04:01:17.667Z,6.72
2023-04-09T04:03:44.231Z,6.82
2023-04-09T04:06:07.284Z,6.82
2023-04-09T04:06:10.732Z,6.78
2023-04-09T04:08:37.089Z,9.07
2023-04-09T04:11:05.019Z,6.80
2023-04-09T04:11:07.307Z,6.80
2023-04-09T04:13:31.781Z,7.40
2023-04-09T04:15:58.210Z,7.95
2023-04-09T04:16:07.398Z,7.95
2023-04-09T04:18:24.617Z,8.25
2023-04-09T04:20:51.183Z,7.45
2023-04-09T04:21:07.264Z,7.45
2023-04-09T04:23:17.610Z,6.28
2023-04-09T04:25:43.959Z,7.93
2023-04-09T04:26:07.293Z,7.93
2023-04-09T04:28:10.356Z,7.10
2023-04-09T04:30:36.783Z,6.97
2023-04-09T04:31:07.341Z,6.97
2023-04-09T04:33:03.302Z,8.18
2023-04-09T04:35:29.691Z,7.65
2023-04-09T04:36:07.310Z,7.65
2023-04-09T04:37:56.162Z,7.05
2023-04-09T04:40:22.538Z,7.75
2023-04-09T04:41:07.304Z,7.75
2023-04-09T04:42:49.005Z,6.25
2023-04-09T04:45:15.482Z,8.40
2023-04-09T04:46:07.329Z,8.40
2023-04-09T04:47:41.914Z,6.05
2023-04-09T04:50:09.074Z,6.65
2023-04-09T04:51:07.311Z,6.65
2023-04-09T04:52:36.496Z,6.00
2023-04-09T04:55:02.942Z,8.60
2023-04-09T04:56:07.356Z,8.60
2023-04-09T04:57:29.358Z,7.50
2023-04-09T04:59:55.757Z,7.80
2023-04-09T05:01:07.344Z,7.80
2023-04-09T05:02:22.288Z,7.72
2023-04-09T05:04:48.688Z,6.60
2023-04-09T05:06:07.310Z,6.60
2023-04-09T05:07:15.538Z,6.53
2023-04-09T05:09:42.905Z,6.90
2023-04-09T05:11:07.310Z,6.90
2023-04-09T05:12:11.913Z,8.63
2023-04-09T05:14:38.212Z,6.30
2023-04-09T05:16:07.307Z,6.30
2023-04-09T05:17:04.790Z,7.18
2023-04-09T05:19:33.598Z,6.18
2023-04-09T05:21:07.295Z,6.18
2023-04-09T05:22:00.065Z,6.13
2023-04-09T05:24:26.434Z,6.32
2023-04-09T05:26:07.289Z,6.32
2023-04-09T05:26:52.823Z,7.57
2023-04-09T05:29:19.145Z,5.65
2023-04-09T05:31:07.369Z,5.65
2023-04-09T05:31:45.582Z,7.43
2023-04-09T05:34:12.050Z,7.05
2023-04-09T05:36:07.363Z,7.05
2023-04-09T05:36:38.383Z,7.90
2023-04-09T05:39:04.785Z,7.45
2023-04-09T05:41:07.290Z,7.45
2023-04-09T05:41:32.592Z,7.50
2023-04-09T05:44:00.844Z,6.82
2023-04-09T05:46:07.350Z,6.82
2023-04-09T05:46:30.016Z,7.53
2023-04-09T05:48:56.668Z,9.23
2023-04-09T05:51:07.301Z,9.23
2023-04-09T05:51:23.070Z,7.70
2023-04-09T05:53:49.902Z,7.07
2023-04-09T05:56:07.321Z,7.07
2023-04-09T05:56:16.525Z,8.38
2023-04-09T05:58:42.917Z,9.05
2023-04-09T06:01:07.302Z,9.05
2023-04-09T06:01:10.218Z,9.38
2023-04-09T06:03:36.898Z,8.60
2023-04-09T06:06:03.436Z,10.23
2023-04-09T06:06:07.383Z,10.23
2023-04-09T06:08:29.846Z,9.05
2023-04-09T06:10:56.261Z,9.57
2023-04-09T06:11:07.347Z,9.57
2023-04-09T06:13:22.739Z,8.48
2023-04-09T06:15:49.137Z,9.52
2023-04-09T06:16:07.409Z,9.52
2023-04-09T06:18:15.653Z,9.55
2023-04-09T06:20:41.981Z,7.50
2023-04-09T06:21:07.343Z,7.50
2023-04-09T06:23:08.329Z,9.20
2023-04-09T06:25:36.426Z,7.35
2023-04-09T06:26:07.354Z,7.35
2023-04-09T06:28:03.140Z,9.10
2023-04-09T06:30:30.925Z,10.23
2023-04-09T06:31:08.532Z,10.23
2023-04-09T06:32:57.266Z,9.18
2023-04-09T06:35:23.733Z,6.80
2023-04-09T06:36:07.415Z,6.80
2023-04-09T06:37:50.315Z,8.57
2023-04-09T06:40:16.721Z,10.80
2023-04-09T06:41:07.354Z,10.80
2023-04-09T06:42:43.153Z,7.68
2023-04-09T06:45:12.126Z,10.48
2023-04-09T06:46:07.397Z,10.48
2023-04-09T06:47:38.530Z,7.85
2023-04-09T06:50:05.644Z,8.73
2023-04-09T06:51:07.363Z,8.73
2023-04-09T06:52:32.055Z,8.90
2023-04-09T06:54:58.436Z,8.77
2023-04-09T06:56:07.339Z,8.77
2023-04-09T06:57:26.239Z,7.68
2023-04-09T06:59:52.711Z,6.88
2023-04-09T07:01:07.349Z,6.88
2023-04-09T07:02:19.223Z,7.97
2023-04-09T07:04:45.926Z,8.07
2023-04-09T07:06:07.351Z,8.07
2023-04-09T07:07:12.575Z,7.13
2023-04-09T07:09:39.245Z,7.20
2023-04-09T07:11:07.361Z,7.20
2023-04-09T07:12:05.702Z,7.78
2023-04-09T07:14:32.100Z,7.15
2023-04-09T07:16:07.350Z,7.15
2023-04-09T07:16:58.541Z,6.55
2023-04-09T07:19:24.892Z,7.82
2023-04-09T07:21:07.309Z,7.82
2023-04-09T07:21:51.377Z,7.32
2023-04-09T07:24:17.827Z,7.18
2023-04-09T07:26:07.354Z,7.18
2023-04-09T07:26:44.227Z,6.82
2023-04-09T07:29:10.602Z,6.53
2023-04-09T07:31:07.422Z,6.53
2023-04-09T07:31:37.111Z,7.68
2023-04-09T07:34:03.686Z,6.45
2023-04-09T07:36:07.340Z,6.45
2023-04-09T07:36:31.806Z,6.55
2023-04-09T07:38:58.261Z,6.72
2023-04-09T07:41:07.347Z,6.72
2023-04-09T07:41:24.726Z,7.72
2023-04-09T07:43:51.455Z,6.97
2023-04-09T07:46:07.389Z,6.97
2023-04-09T07:46:21.707Z,7.85
2023-04-09T07:48:49.965Z,7.70
2023-04-09T07:51:07.336Z,7.70
2023-04-09T07:51:16.602Z,7.68
2023-04-09T07:53:43.038Z,6.75
2023-04-09T07:56:07.346Z,6.75
2023-04-09T07:56:09.388Z,6.50
2023-04-09T07:58:38.006Z,6.70
2023-04-09T08:01:04.788Z,6.70
2023-04-09T08:01:07.360Z,6.70
2023-04-09T08:03:31.581Z,7.60
2023-04-09T08:05:58.142Z,6.15
2023-04-09T08:06:07.366Z,6.15
2023-04-09T08:08:25.045Z,6.85
2023-04-09T08:10:51.551Z,7.10
2023-04-09T08:11:07.366Z,7.10
2023-04-09T08:13:17.960Z,6.30
2023-04-09T08:15:44.366Z,6.28
2023-04-09T08:16:07.351Z,6.28
2023-04-09T08:18:10.823Z,7.13
2023-04-09T08:20:37.838Z,6.53
2023-04-09T08:21:07.348Z,6.53
2023-04-09T08:23:04.260Z,5.90
2023-04-09T08:25:30.906Z,7.25
2023-04-09T08:26:07.339Z,7.25
2023-04-09T08:27:58.122Z,6.97
2023-04-09T08:30:24.581Z,7.63
2023-04-09T08:31:07.422Z,7.63
2023-04-09T08:32:50.996Z,6.53
2023-04-09T08:35:17.478Z,7.75
2023-04-09T08:36:07.397Z,7.75
2023-04-09T08:37:43.936Z,6.88
2023-04-09T08:40:11.654Z,7.45
2023-04-09T08:41:07.361Z,7.45
2023-04-09T08:42:45.846Z,6.13
2023-04-09T08:45:12.932Z,7.13
2023-04-09T08:46:07.390Z,7.13
2023-04-09T08:47:42.578Z,6.53
2023-04-09T08:50:09.264Z,7.07
2023-04-09T08:51:07.362Z,7.07
2023-04-09T08:52:36.969Z,6.47
2023-04-09T08:55:03.621Z,6.68
2023-04-09T08:56:07.390Z,6.68
2023-04-09T08:57:30.403Z,6.15
2023-04-09T08:59:57.087Z,6.63
2023-04-09T09:01:07.434Z,6.63
2023-04-09T09:02:24.250Z,5.45
2023-04-09T09:04:50.906Z,5.93
2023-04-09T09:06:07.340Z,5.93
2023-04-09T09:07:18.194Z,5.90
2023-04-09T09:09:56.143Z,6.57
2023-04-09T09:11:07.340Z,6.57
2023-04-09T09:12:32.822Z,6.05
2023-04-09T09:14:59.626Z,6.22
2023-04-09T09:16:07.334Z,6.22
2023-04-09T09:17:26.511Z,7.22
2023-04-09T09:19:52.926Z,6.90
2023-04-09T09:21:07.569Z,6.90
2023-04-09T09:22:19.306Z,6.45
2023-04-09T09:24:51.127Z,6.18
2023-04-09T09:26:07.385Z,6.18
2023-04-09T09:27:40.250Z,6.10
2023-04-09T09:30:08.690Z,5.95
2023-04-09T09:31:07.474Z,5.95
2023-04-09T09:32:35.828Z,5.78
2023-04-09T09:35:05.647Z,5.70
2023-04-09T09:36:07.392Z,5.70
2023-04-09T09:37:32.853Z,5.88
2023-04-09T09:40:00.251Z,5.82
2023-04-09T09:41:07.423Z,5.82
2023-04-09T09:42:32.741Z,5.53
2023-04-09T09:45:02.515Z,6.28
2023-04-09T09:46:07.398Z,6.28
2023-04-09T09:47:38.875Z,5.50
2023-04-09T09:50:05.852Z,6.25
2023-04-09T09:51:07.346Z,6.25
2023-04-09T09:52:32.497Z,5.30
2023-04-09T09:55:05.251Z,6.32
2023-04-09T09:56:07.342Z,6.32
2023-04-09T09:57:42.502Z,14.05
2023-04-09T10:00:12.500Z,5.25
2023-04-09T10:01:07.391Z,5.25
2023-04-09T10:02:56.595Z,5.53
2023-04-09T10:05:26.781Z,5.80
2023-04-09T10:06:07.348Z,5.80
2023-04-09T10:07:57.256Z,5.85
2023-04-09T10:10:25.836Z,5.57
2023-04-09T10:11:07.395Z,5.57
2023-04-09T10:12:52.653Z,6.45
2023-04-09T10:15:19.786Z,6.03
2023-04-09T10:16:07.480Z,6.03
2023-04-09T10:17:46.319Z,5.85
2023-04-09T10:20:19.614Z,5.85
2023-04-09T10:21:07.365Z,5.85
2023-04-09T10:22:49.152Z,5.82
2023-04-09T10:25:16.454Z,5.90
2023-04-09T10:26:07.349Z,5.90
2023-04-09T10:27:46.108Z,5.85
2023-04-09T10:30:34.580Z,5.40
2023-04-09T10:31:07.651Z,5.40
2023-04-09T10:33:13.797Z,6.40
2023-04-09T10:35:40.322Z,5.68
2023-04-09T10:36:07.419Z,5.68
2023-04-09T10:38:10.764Z,6.05
2023-04-09T10:40:42.384Z,5.63
2023-04-09T10:41:07.358Z,5.63
2023-04-09T10:43:10.385Z,5.85
2023-04-09T10:45:41.802Z,6.05
2023-04-09T10:46:07.411Z,6.05
2023-04-09T10:48:14.778Z,6.38
2023-04-09T10:50:44.646Z,6.03
2023-04-09T10:51:07.359Z,6.03
2023-04-09T10:53:26.378Z,6.53
2023-04-09T10:55:54.052Z,6.07
2023-04-09T10:56:07.402Z,6.07
2023-04-09T10:58:20.494Z,6.60
2023-04-09T11:00:48.488Z,6.07
2023-04-09T11:01:07.370Z,6.07
2023-04-09T11:03:28.912Z,6.25
2023-04-09T11:05:57.713Z,6.10
2023-04-09T11:06:07.393Z,6.10
2023-04-09T11:08:27.667Z,6.38
2023-04-09T11:10:58.347Z,6.15
2023-04-09T11:11:07.385Z,6.15
2023-04-09T11:13:25.437Z,6.18
2023-04-09T11:15:51.877Z,5.88
2023-04-09T11:16:07.649Z,5.88
2023-04-09T11:18:23.651Z,5.80
2023-04-09T11:20:50.543Z,5.90
2023-04-09T11:21:07.405Z,5.90
2023-04-09T11:23:17.811Z,6.57
2023-04-09T11:25:49.671Z,5.95
2023-04-09T11:26:07.382Z,5.95
2023-04-09T11:28:16.305Z,6.25
2023-04-09T11:30:43.680Z,7.32
2023-04-09T11:31:07.601Z,7.32
2023-04-09T11:33:10.495Z,6.72
2023-04-09T11:35:37.379Z,6.65
2023-04-09T11:36:07.505Z,6.65
2023-04-09T11:38:11.262Z,6.43
2023-04-09T11:40:47.579Z,6.15
2023-04-09T11:41:07.376Z,6.15
2023-04-09T11:43:16.561Z,6.22
2023-04-09T11:45:44.230Z,7.30
2023-04-09T11:46:07.361Z,7.30
2023-04-09T11:48:11.596Z,8.25
2023-04-09T11:50:38.123Z,6.53
2023-04-09T11:51:07.360Z,6.53
2023-04-09T11:53:18.389Z,6.53
2023-04-09T11:55:47.760Z,7.03
2023-04-09T11:56:07.430Z,7.03
2023-04-09T11:58:14.849Z,7.32
2023-04-09T12:00:41.383Z,6.75
2023-04-09T12:01:07.368Z,6.75
2023-04-09T12:03:08.227Z,7.03
2023-04-09T12:05:39.165Z,6.75
2023-04-09T12:06:07.398Z,6.75
2023-04-09T12:10:38.089Z,6.32
2023-04-09T12:11:07.388Z,6.32
2023-04-09T12:13:10.431Z,6.70
2023-04-09T12:15:38.533Z,6.47
2023-04-09T12:16:07.531Z,6.47
2023-04-09T12:18:08.753Z,6.57
2023-04-09T12:20:39.409Z,6.82
2023-04-09T12:21:07.382Z,6.82
2023-04-09T12:23:07.348Z,6.53
2023-04-09T12:25:36.508Z,6.78
2023-04-09T12:26:07.462Z,6.78
2023-04-09T12:28:07.272Z,7.43
2023-04-09T12:30:34.798Z,6.78
2023-04-09T12:31:07.362Z,6.78
2023-04-09T12:33:01.439Z,7.28
2023-04-09T12:35:28.310Z,6.70
2023-04-09T12:36:07.454Z,6.70
2023-04-09T12:37:55.151Z,6.90
2023-04-09T12:40:22.327Z,6.47
2023-04-09T12:41:07.352Z,6.47
2023-04-09T12:42:48.988Z,6.25
2023-04-09T12:45:17.424Z,7.15
2023-04-09T12:46:07.471Z,7.15
2023-04-09T12:47:44.654Z,6.82
2023-04-09T12:50:12.836Z,6.55
2023-04-09T12:51:07.384Z,6.55
2023-04-09T12:52:39.342Z,7.15
2023-04-09T12:55:06.550Z,7.03
2023-04-09T12:56:07.387Z,7.03
2023-04-09T12:57:33.115Z,6.90
2023-04-09T13:00:00.087Z,6.68
2023-04-09T13:01:07.507Z,6.68
2023-04-09T13:02:26.857Z,7.30
2023-04-09T13:04:53.452Z,7.40
2023-04-09T13:06:07.448Z,7.40
2023-04-09T13:07:20.357Z,6.97
2023-04-09T13:09:48.921Z,6.57
2023-04-09T13:11:07.401Z,6.57
2023-04-09T13:12:16.241Z,7.22
2023-04-09T13:14:46.730Z,6.95
2023-04-09T13:16:07.511Z,6.95
2023-04-09T13:17:13.298Z,6.85
2023-04-09T13:19:42.011Z,6.68
2023-04-09T13:21:07.431Z,6.68
2023-04-09T13:22:09.177Z,6.72
2023-04-09T13:24:36.195Z,7.15
2023-04-09T13:26:07.447Z,7.15
2023-04-09T13:27:04.580Z,7.00
2023-04-09T13:29:31.354Z,7.20
2023-04-09T13:31:07.450Z,7.20
2023-04-09T13:31:58.410Z,7.18
2023-04-09T13:34:25.276Z,6.85
2023-04-09T13:36:07.493Z,6.85
2023-04-09T13:36:51.786Z,6.68
2023-04-09T13:39:18.151Z,7.18
2023-04-09T13:41:07.438Z,7.18
2023-04-09T13:41:44.591Z,6.82
2023-04-09T13:44:11.358Z,6.35
2023-04-09T13:46:07.507Z,6.35
2023-04-09T13:46:37.839Z,6.78
2023-04-09T13:49:04.243Z,6.63
2023-04-09T13:51:07.416Z,6.63
2023-04-09T13:51:33.182Z,6.63
2023-04-09T13:53:59.633Z,6.95
2023-04-09T13:56:07.416Z,6.95
2023-04-09T13:56:27.461Z,7.15
2023-04-09T13:58:54.489Z,7.03
2023-04-09T14:01:08.137Z,7.03
2023-04-09T14:01:21.469Z,6.82
2023-04-09T14:03:48.007Z,6.78
2023-04-09T14:06:07.420Z,6.78
2023-04-09T14:06:14.486Z,6.32
2023-04-09T14:08:40.949Z,6.80
2023-04-09T14:11:07.517Z,6.68
2023-04-09T14:11:07.705Z,6.68
2023-04-09T14:13:33.959Z,7.15
2023-04-09T14:16:00.641Z,6.35
2023-04-09T14:16:07.663Z,6.35
2023-04-09T14:18:27.145Z,6.40
2023-04-09T14:20:53.626Z,6.80
2023-04-09T14:21:08.699Z,6.80
2023-04-09T14:23:20.159Z,6.63
2023-04-09T14:25:46.560Z,6.45
2023-04-09T14:26:07.408Z,6.45
2023-04-09T14:28:12.927Z,6.25
2023-04-09T14:30:39.394Z,6.53
2023-04-09T14:31:07.474Z,6.53
2023-04-09T14:33:05.897Z,6.82
2023-04-09T14:35:32.334Z,6.78
2023-04-09T14:36:07.478Z,6.78
2023-04-09T14:37:58.710Z,7.07
2023-04-09T14:40:25.246Z,6.75
2023-04-09T14:41:07.412Z,6.75
2023-04-09T14:42:51.599Z,6.43
2023-04-09T14:45:18.017Z,6.22
2023-04-09T14:46:07.452Z,6.22
2023-04-09T14:47:44.556Z,6.40
2023-04-09T14:50:12.605Z,6.78
2023-04-09T14:51:07.414Z,6.78
2023-04-09T14:52:39.082Z,6.45
2023-04-09T14:55:08.972Z,6.00
2023-04-09T14:56:07.420Z,6.00
2023-04-09T14:57:35.349Z,6.65
2023-04-09T15:00:01.962Z,6.18
2023-04-09T15:01:07.383Z,6.18
2023-04-09T15:02:28.639Z,6.90
2023-04-09T15:04:55.285Z,6.97
2023-04-09T15:06:07.424Z,6.97
2023-04-09T15:07:23.820Z,6.53
2023-04-09T15:09:51.380Z,6.40
2023-04-09T15:11:07.444Z,6.40
2023-04-09T15:12:18.495Z,6.35
2023-04-09T15:14:44.917Z,6.30
2023-04-09T15:16:07.496Z,6.30
2023-04-09T15:17:11.315Z,6.35
2023-04-09T15:19:37.698Z,6.32
2023-04-09T15:21:07.491Z,6.32
2023-04-09T15:22:04.013Z,6.63
2023-04-09T15:24:30.404Z,5.88
2023-04-09T15:26:07.435Z,5.88
2023-04-09T15:26:56.915Z,6.85
2023-04-09T15:29:23.249Z,6.25
2023-04-09T15:31:07.515Z,6.25
2023-04-09T15:31:52.963Z,6.70
2023-04-09T15:34:19.415Z,5.85
2023-04-09T15:36:07.478Z,5.85
2023-04-09T15:36:46.136Z,6.53
2023-04-09T15:39:12.537Z,6.25
2023-04-09T15:41:07.448Z,6.25
2023-04-09T15:41:39.468Z,6.22
2023-04-09T15:44:07.814Z,6.78
2023-04-09T15:46:07.519Z,6.78
2023-04-09T15:46:34.379Z,6.55
2023-04-09T15:49:00.919Z,7.13
2023-04-09T15:51:07.442Z,7.13
2023-04-09T15:51:27.319Z,6.75
2023-04-09T15:53:53.729Z,6.35
2023-04-09T15:56:07.441Z,6.35
2023-04-09T15:56:20.230Z,6.07
2023-04-09T15:58:46.591Z,6.20
2023-04-09T16:01:07.460Z,6.20
2023-04-09T16:01:13.087Z,5.95
2023-04-09T16:03:40.947Z,6.45
2023-04-09T16:06:09.978Z,6.40
2023-04-09T16:06:10.188Z,6.40
2023-04-09T16:08:37.222Z,5.90
2023-04-09T16:11:04.900Z,6.60
2023-04-09T16:11:07.438Z,6.60
2023-04-09T16:13:31.403Z,6.10
2023-04-09T16:15:57.868Z,6.47
2023-04-09T16:16:07.513Z,6.47
2023-04-09T16:18:25.728Z,6.13
2023-04-09T16:20:56.459Z,6.25
2023-04-09T16:21:07.553Z,6.25
2023-04-09T16:23:29.065Z,5.93
2023-04-09T16:25:56.795Z,6.65
2023-04-09T16:26:07.444Z,6.65
2023-04-09T16:28:23.167Z,6.20
2023-04-09T16:30:50.856Z,5.43
2023-04-09T16:31:07.455Z,5.43
2023-04-09T16:33:17.341Z,6.07
2023-04-09T16:35:43.757Z,6.05
2023-04-09T16:36:07.420Z,6.05
2023-04-09T16:38:10.423Z,6.45
2023-04-09T16:40:36.946Z,6.10
2023-04-09T16:41:07.449Z,6.10
2023-04-09T16:43:03.638Z,6.45
2023-04-09T16:45:30.293Z,6.43
2023-04-09T16:46:07.663Z,6.43
2023-04-09T16:47:56.715Z,5.38
2023-04-09T16:50:23.398Z,5.85
2023-04-09T16:51:07.451Z,5.85
2023-04-09T16:52:49.812Z,6.43
2023-04-09T16:55:16.467Z,6.22
2023-04-09T16:56:07.447Z,6.22
2023-04-09T16:57:43.000Z,5.75
2023-04-09T17:00:10.474Z,5.97
2023-04-09T17:01:07.434Z,5.97
2023-04-09T17:02:37.064Z,5.82
2023-04-09T17:05:04.341Z,6.47
2023-04-09T17:06:07.448Z,6.47
2023-04-09T17:07:30.820Z,5.53
2023-04-09T17:09:57.224Z,5.68
2023-04-09T17:11:07.507Z,5.68
2023-04-09T17:12:24.431Z,5.20
2023-04-09T17:14:51.553Z,5.55
2023-04-09T17:16:07.435Z,5.55
2023-04-09T17:17:18.562Z,5.40
2023-04-09T17:19:45.113Z,5.38
2023-04-09T17:21:07.554Z,5.38
2023-04-09T17:22:13.394Z,5.68
2023-04-09T17:24:39.978Z,5.68
2023-04-09T17:26:07.451Z,5.68
2023-04-09T17:27:07.109Z,5.28
2023-04-09T17:29:34.290Z,6.00
2023-04-09T17:32:00.685Z,5.55
2023-04-09T17:34:27.210Z,6.18
2023-04-09T17:36:07.541Z,6.18
2023-04-09T17:36:57.202Z,5.85
2023-04-09T17:39:26.581Z,5.72
2023-04-09T17:41:07.766Z,5.72
2023-04-09T17:41:53.633Z,5.53
2023-04-09T17:44:20.574Z,7.18
2023-04-09T17:46:07.547Z,7.18
2023-04-09T17:46:47.094Z,6.07
2023-04-09T17:49:13.570Z,5.38
2023-04-09T17:51:07.464Z,5.38
2023-04-09T17:51:39.921Z,5.80
2023-04-09T17:54:06.648Z,6.10
2023-04-09T17:56:07.476Z,6.10
2023-04-09T17:56:35.374Z,5.90
2023-04-09T17:59:02.166Z,5.40
2023-04-09T18:01:07.625Z,5.40
2023-04-09T18:01:28.793Z,5.47
2023-04-09T18:03:55.453Z,5.90
2023-04-09T18:06:07.479Z,5.90
2023-04-09T18:06:21.964Z,5.30
2023-04-09T18:08:50.114Z,5.38
2023-04-09T18:11:18.351Z,4.88
2023-04-09T18:13:44.868Z,5.40
2023-04-09T18:16:07.550Z,5.40
2023-04-09T18:16:14.676Z,5.68
2023-04-09T18:18:41.351Z,5.75
2023-04-09T18:21:07.884Z,5.43
2023-04-09T18:21:08.542Z,5.43
2023-04-09T18:23:34.749Z,6.05
2023-04-09T18:26:01.160Z,5.63
2023-04-09T18:26:07.479Z,5.63
2023-04-09T18:28:28.107Z,5.40
2023-04-09T18:30:54.775Z,5.70
2023-04-09T18:31:07.466Z,5.70
2023-04-09T18:33:21.431Z,5.78
2023-04-09T18:35:48.949Z,5.28
2023-04-09T18:36:07.475Z,5.28
2023-04-09T18:38:15.418Z,5.93
2023-04-09T18:40:45.709Z,5.55
2023-04-09T18:41:07.475Z,5.55
2023-04-09T18:43:12.489Z,5.60
2023-04-09T18:45:41.812Z,5.72
2023-04-09T18:46:07.501Z,5.72
2023-04-09T18:48:08.955Z,5.80
2023-04-09T18:50:35.666Z,5.20
2023-04-09T18:51:07.511Z,5.20
2023-04-09T18:53:03.666Z,6.00
2023-04-09T18:55:30.397Z,5.68
2023-04-09T18:56:07.480Z,5.68
2023-04-09T18:57:57.463Z,6.15
2023-04-09T19:00:24.203Z,4.95
2023-04-09T19:01:07.466Z,4.95
2023-04-09T19:02:50.807Z,5.47
2023-04-09T19:05:17.533Z,5.63
2023-04-09T19:06:07.472Z,5.63
2023-04-09T19:07:43.835Z,5.82
2023-04-09T19:10:10.693Z,5.85
2023-04-09T19:11:08.493Z,5.85
2023-04-09T19:12:37.642Z,6.10
2023-04-09T19:15:04.769Z,5.82
2023-04-09T19:16:07.536Z,5.82
2023-04-09T19:17:31.877Z,5.72
2023-04-09T19:19:58.439Z,5.80
2023-04-09T19:21:07.571Z,5.80
2023-04-09T19:22:24.823Z,5.00
2023-04-09T19:24:51.494Z,5.53
2023-04-09T19:26:07.452Z,5.53
2023-04-09T19:27:18.578Z,5.57
2023-04-09T19:29:46.565Z,5.97
2023-04-09T19:31:07.508Z,5.97
2023-04-09T19:32:13.309Z,5.43
2023-04-09T19:34:39.821Z,5.25
2023-04-09T19:36:07.536Z,5.25
2023-04-09T19:37:06.201Z,5.47
2023-04-09T19:39:35.279Z,5.43
2023-04-09T19:41:07.496Z,5.43
2023-04-09T19:42:03.104Z,5.47
2023-04-09T19:44:29.425Z,6.13
2023-04-09T19:46:07.475Z,6.13
2023-04-09T19:46:55.808Z,5.78
2023-04-09T19:49:22.192Z,5.80
2023-04-09T19:51:07.490Z,5.80
2023-04-09T19:51:49.169Z,5.55
2023-04-09T19:54:16.532Z,5.07
2023-04-09T19:56:07.522Z,5.07
2023-04-09T19:56:42.977Z,5.70
2023-04-09T19:59:09.359Z,6.55
2023-04-09T20:01:07.496Z,6.55
2023-04-09T20:01:36.003Z,5.55
2023-04-09T20:04:02.682Z,5.35
2023-04-09T20:06:07.502Z,5.35
2023-04-09T20:06:30.737Z,5.63
2023-04-09T20:08:57.284Z,6.40
2023-04-09T20:11:07.466Z,6.40
2023-04-09T20:11:23.729Z,5.22
2023-04-09T20:13:50.231Z,5.50
2023-04-09T20:16:07.487Z,5.50
2023-04-09T20:16:17.000Z,5.75
2023-04-09T20:18:43.527Z,5.72
2023-04-09T20:21:07.567Z,5.72
2023-04-09T20:21:13.973Z,5.72
2023-04-09T20:23:40.759Z,5.05
2023-04-09T20:26:09.639Z,5.50
2023-04-09T20:26:09.801Z,5.50
2023-04-09T20:28:36.009Z,6.57
2023-04-09T20:31:06.080Z,5.10
2023-04-09T20:31:07.480Z,5.10
2023-04-09T20:33:32.467Z,6.00
2023-04-09T20:35:59.147Z,6.13
2023-04-09T20:36:07.491Z,6.13
2023-04-09T20:38:25.688Z,6.47
2023-04-09T20:40:52.741Z,5.40
2023-04-09T20:41:07.517Z,5.40
2023-04-09T20:43:20.323Z,5.50
2023-04-09T20:45:47.376Z,5.93
2023-04-09T20:46:07.568Z,5.93
2023-04-09T20:48:14.835Z,5.65
2023-04-09T20:50:41.326Z,4.97
2023-04-09T20:51:07.524Z,4.97
2023-04-09T20:53:07.967Z,5.90
2023-04-09T20:55:35.618Z,5.72
2023-04-09T20:56:07.479Z,5.72
2023-04-09T20:58:02.826Z,5.10
2023-04-09T21:00:29.636Z,5.82
2023-04-09T21:01:07.554Z,5.82
2023-04-09T21:02:56.146Z,6.07
2023-04-09T21:05:24.250Z,6.45
2023-04-09T21:06:07.480Z,6.45
2023-04-09T21:07:52.367Z,6.38
2023-04-09T21:10:19.042Z,6.10
2023-04-09T21:11:07.491Z,6.10
2023-04-09T21:12:45.581Z,5.72
2023-04-09T21:15:11.964Z,6.13
2023-04-09T21:16:07.481Z,6.13
2023-04-09T21:17:38.443Z,5.68
2023-04-09T21:20:05.624Z,5.20
2023-04-09T21:21:07.605Z,5.20
2023-04-09T21:22:33.697Z,5.68
2023-04-09T21:25:00.145Z,4.80
2023-04-09T21:26:07.469Z,4.80
2023-04-09T21:27:26.602Z,5.53
2023-04-09T21:29:53.594Z,5.28
2023-04-09T21:31:07.657Z,5.28
2023-04-09T21:32:20.114Z,5.30
2023-04-09T21:34:46.543Z,5.65
2023-04-09T21:36:07.540Z,5.65
2023-04-09T21:37:12.986Z,5.63
2023-04-09T21:39:41.763Z,6.40
2023-04-09T21:41:07.513Z,6.40
2023-04-09T21:42:08.756Z,5.80
2023-04-09T21:44:35.327Z,6.40
2023-04-09T21:46:07.515Z,6.40
2023-04-09T21:47:01.820Z,6.45
2023-04-09T21:49:28.194Z,6.15
2023-04-09T21:51:07.517Z,6.15
2023-04-09T21:51:55.619Z,5.60
2023-04-09T21:54:22.004Z,6.20
2023-04-09T21:56:07.492Z,6.20
2023-04-09T21:56:50.686Z,6.00
2023-04-09T21:59:17.030Z,5.38